Time;durP1;ratioP1;P1;durP2;ratioP2;P2;SDS_P1;SDS_P2;PMS_P1;PMS_P2;Temp;Humidity;BMP_temperature;BMP_pressure;BME280_temperature;BME280_humidity;BME280_pressure;Samples;Min_cycle;Max_cycle;Signal;HPM_P1;HPM_P2
2023/03/21 00:00:34;;;;;;;18.92;10.80;;;;;;;9.12;100.00;101497.97;5111714;28;20043;-70
2023/03/21 00:03:00;;;;;;;20.10;11.30;;;;;;;9.09;100.00;101493.84;5113183;28;20054;-73
2023/03/21 00:05:25;;;;;;;21.23;11.40;;;;;;;9.07;100.00;101492.34;5094901;28;20465;-71
2023/03/21 00:07:51;;;;;;;21.35;11.65;;;;;;;9.08;100.00;101489.47;5113596;28;20022;-71
2023/03/21 00:10:16;;;;;;;23.73;11.27;;;;;;;9.06;100.00;101491.53;5113789;28;20478;-70
2023/03/21 00:12:42;;;;;;;21.15;11.40;;;;;;;9.05;100.00;101487.97;5112689;28;20028;-73
2023/03/21 00:15:09;;;;;;;20.27;11.40;;;;;;;9.05;100.00;101482.56;5113389;28;20105;-72
2023/03/21 00:17:34;;;;;;;15.63;10.93;;;;;;;9.08;100.00;101475.13;5113716;28;20024;-69
2023/03/21 00:20:04;;;;;;;16.85;10.23;;;;;;;9.08;100.00;101478.66;5094720;28;20027;-72
2023/03/21 00:22:29;;;;;;;17.13;10.52;;;;;;;9.04;100.00;101470.13;5112314;28;20031;-72
2023/03/21 00:24:55;;;;;;;14.85;9.88;;;;;;;9.07;100.00;101468.88;5095035;28;20073;-70
2023/03/21 00:27:20;;;;;;;16.38;10.70;;;;;;;9.09;100.00;101466.84;5113507;28;20034;-71
2023/03/21 00:29:48;;;;;;;17.33;9.68;;;;;;;9.09;100.00;101460.56;5113000;28;20382;-71
2023/03/21 00:32:14;;;;;;;17.38;9.75;;;;;;;9.11;100.00;101463.94;5094438;28;20019;-70
2023/03/21 00:34:41;;;;;;;13.70;9.18;;;;;;;9.10;100.00;101454.16;5094211;28;20044;-70
2023/03/21 00:37:07;;;;;;;14.70;9.65;;;;;;;9.12;100.00;101454.78;5113088;28;20472;-70
2023/03/21 00:39:33;;;;;;;16.77;9.98;;;;;;;9.10;100.00;101446.06;5113288;28;20028;-72
2023/03/21 00:41:58;;;;;;;18.45;9.93;;;;;;;9.11;100.00;101448.56;5093943;28;20451;-71
2023/03/21 00:44:24;;;;;;;16.25;9.27;;;;;;;9.13;100.00;101451.88;5112604;28;20110;-69
2023/03/21 00:46:50;;;;;;;14.75;8.63;;;;;;;9.12;100.00;101442.13;5108059;28;20429;-71
2023/03/21 00:49:15;;;;;;;15.50;9.25;;;;;;;9.10;100.00;101440.66;5113257;28;20019;-69
2023/03/21 00:51:42;;;;;;;15.57;9.35;;;;;;;9.11;100.00;101436.94;5112835;28;20019;-72
2023/03/21 00:54:10;;;;;;;16.08;8.90;;;;;;;9.12;100.00;101435.88;5109832;28;20044;-70
2023/03/21 00:56:36;;;;;;;16.98;8.80;;;;;;;9.14;100.00;101431.94;5091627;28;20035;-72
2023/03/21 00:59:01;;;;;;;18.67;9.27;;;;;;;9.15;100.00;101430.06;5074091;28;20374;-71
2023/03/21 01:01:30;;;;;;;17.73;8.95;;;;;;;9.14;100.00;101423.03;5089755;28;20035;-72
2023/03/21 01:04:01;;;;;;;21.02;9.25;;;;;;;9.15;100.00;101416.56;5074418;28;20030;-70
2023/03/21 01:06:27;;;;;;;20.40;9.05;;;;;;;9.15;100.00;101411.16;5091951;28;20113;-69
2023/03/21 01:08:53;;;;;;;14.52;8.43;;;;;;;9.17;100.00;101409.13;5092375;28;20496;-70
2023/03/21 01:11:21;;;;;;;19.27;8.52;;;;;;;9.16;100.00;101411.00;5092175;28;20024;-70
2023/03/21 01:13:47;;;;;;;17.08;8.57;;;;;;;9.20;100.00;101414.13;5092286;28;20192;-72
2023/03/21 01:16:12;;;;;;;17.85;8.23;;;;;;;9.19;100.00;101407.91;5091602;28;20035;-72
2023/03/21 01:18:39;;;;;;;18.98;8.90;;;;;;;9.21;100.00;101399.59;5091960;28;20051;-71
2023/03/21 01:21:08;;;;;;;15.68;8.10;;;;;;;9.20;100.00;101392.53;5092442;28;20056;-72
2023/03/21 01:23:34;;;;;;;12.25;7.63;;;;;;;9.20;100.00;101396.03;5092407;28;20024;-71
2023/03/21 01:25:59;;;;;;;19.60;8.65;;;;;;;9.21;100.00;101400.41;5081038;28;20075;-73
2023/03/21 01:28:27;;;;;;;14.00;8.00;;;;;;;9.23;100.00;101397.50;5054144;28;20029;-71
2023/03/21 01:30:52;;;;;;;13.50;7.57;;;;;;;9.21;100.00;101395.00;5083659;28;20024;-70
2023/03/21 01:33:20;;;;;;;14.73;7.68;;;;;;;9.22;100.00;101395.84;5092278;28;20457;-71
2023/03/21 01:35:45;;;;;;;17.27;7.85;;;;;;;9.22;100.00;101385.03;5091327;28;20101;-73
2023/03/21 01:38:12;;;;;;;15.82;7.35;;;;;;;9.22;100.00;101390.44;5074201;28;20435;-71
2023/03/21 01:40:38;;;;;;;15.80;7.85;;;;;;;9.25;100.00;101390.03;5074112;28;20020;-71
2023/03/21 01:43:19;;;;;;;16.75;7.60;;;;;;;9.23;100.00;101389.41;5092402;28;20024;-72
2023/03/21 01:46:11;;;;;;;17.05;7.93;;;;;;;9.27;100.00;101382.56;5090825;28;20486;-72
2023/03/21 01:48:40;;;;;;;16.10;8.27;;;;;;;9.22;100.00;101375.09;5091604;28;20104;-71
2023/03/21 01:51:07;;;;;;;14.98;7.60;;;;;;;9.26;100.00;101374.69;5091820;28;20077;-70
2023/03/21 01:53:35;;;;;;;20.02;8.48;;;;;;;9.23;100.00;101375.91;5092338;28;20031;-71
2023/03/21 01:56:11;;;;;;;16.55;8.10;;;;;;;9.23;100.00;101384.00;5109719;28;20044;-69
2023/03/21 01:58:39;;;;;;;13.65;8.13;;;;;;;9.22;100.00;101379.63;5112619;28;20060;-72
2023/03/21 02:01:05;;;;;;;16.33;8.20;;;;;;;9.24;100.00;101377.59;5108245;28;20038;-72
2023/03/21 02:03:36;;;;;;;14.82;8.07;;;;;;;9.22;100.00;101360.72;5093803;28;20031;-70
2023/03/21 02:06:07;;;;;;;17.17;8.38;;;;;;;9.19;100.00;101364.69;5110165;28;20023;-72
2023/03/21 02:08:33;;;;;;;19.17;8.55;;;;;;;9.20;100.00;101360.94;5112461;28;20028;-71
2023/03/21 02:10:58;;;;;;;17.90;8.32;;;;;;;9.21;100.00;101359.09;5095019;28;20508;-71
2023/03/21 02:13:24;;;;;;;15.07;7.70;;;;;;;9.20;100.00;101352.84;5116129;28;20035;-70
2023/03/21 02:16:06;;;;;;;17.27;7.90;;;;;;;9.22;100.00;101353.47;5115386;28;20056;-72
2023/03/21 02:18:51;;;;;;;17.33;7.93;;;;;;;9.23;100.00;101347.03;5114982;27;20035;-70
2023/03/21 02:21:35;;;;;;;14.80;7.68;;;;;;;9.24;100.00;101347.88;5115505;28;20472;-69
2023/03/21 02:24:44;;;;;;;14.43;7.85;;;;;;;9.27;100.00;101342.06;5095018;28;20024;-72
2023/03/21 02:27:10;;;;;;;15.73;7.80;;;;;;;9.24;100.00;101342.47;5095478;28;20024;-69
2023/03/21 02:30:00;;;;;;;15.07;7.75;;;;;;;9.22;100.00;101337.28;5095685;28;20397;-71
2023/03/21 02:33:09;;;;;;;14.80;7.80;;;;;;;9.23;100.00;101332.69;5102301;28;20059;-70
2023/03/21 02:35:59;;;;;;;14.88;7.45;;;;;;;9.22;100.00;101334.56;5114544;28;20058;-72
2023/03/21 02:38:50;;;;;;;19.63;7.47;;;;;;;9.22;100.00;101334.56;5097630;28;20048;-70
2023/03/21 02:41:20;;;;;;;17.95;8.57;;;;;;;9.23;100.00;101324.59;5095692;28;20031;-70
2023/03/21 02:44:06;;;;;;;16.73;7.93;;;;;;;9.23;100.00;101324.59;5096869;28;20366;-70
2023/03/21 02:46:42;;;;;;;13.57;8.00;;;;;;;9.21;100.00;101329.38;5115825;28;20027;-72
2023/03/21 02:49:26;;;;;;;15.23;7.43;;;;;;;9.20;100.00;101325.00;5103900;28;20032;-72
2023/03/21 02:51:52;;;;;;;17.92;7.55;;;;;;;9.19;100.00;101320.63;5098950;28;20016;-69
2023/03/21 02:54:22;;;;;;;13.38;7.35;;;;;;;9.20;100.00;101322.31;5115043;28;20481;-73
2023/03/21 02:56:50;;;;;;;14.93;7.43;;;;;;;9.21;100.00;101323.97;5115102;28;20118;-69
2023/03/21 02:59:18;;;;;;;16.73;7.95;;;;;;;9.20;100.00;101314.22;5114533;28;20035;-71
2023/03/21 03:01:44;;;;;;;17.60;7.90;;;;;;;9.18;100.00;101314.41;5112797;28;20035;-72
2023/03/21 03:04:26;;;;;;;15.10;7.53;;;;;;;9.23;100.00;101309.22;5114043;28;20024;-71
2023/03/21 03:06:59;;;;;;;15.93;8.23;;;;;;;9.20;100.00;101308.81;5096552;28;20491;-70
2023/03/21 03:09:57;;;;;;;12.65;7.70;;;;;;;9.23;100.00;101308.41;5095941;28;20071;-72
2023/03/21 03:12:52;;;;;;;16.08;8.18;;;;;;;9.22;100.00;101298.63;5115020;28;20028;-70
2023/03/21 03:15:17;;;;;;;14.60;8.00;;;;;;;9.18;100.00;101298.22;5096519;28;20430;-70
2023/03/21 03:17:50;;;;;;;13.97;8.63;;;;;;;9.17;100.00;101295.72;5113967;28;20083;-73
2023/03/21 03:20:28;;;;;;;15.15;8.13;;;;;;;9.17;100.00;101301.94;5114086;28;20296;-71
2023/03/21 03:22:53;;;;;;;17.63;8.50;;;;;;;9.15;100.00;101290.53;5114149;28;20475;-73
2023/03/21 03:25:25;;;;;;;17.08;7.95;;;;;;;9.11;100.00;101291.13;5096692;28;20106;-73
2023/03/21 03:27:54;;;;;;;15.48;8.45;;;;;;;9.11;100.00;101294.66;5114388;28;20016;-71
2023/03/21 03:30:23;;;;;;;15.73;8.10;;;;;;;9.12;100.00;101292.78;5105661;28;20020;-72
2023/03/21 03:32:52;;;;;;;15.88;8.43;;;;;;;9.09;100.00;101285.94;5099542;27;20055;-71
2023/03/21 03:35:21;;;;;;;16.75;8.10;;;;;;;9.08;100.00;101289.66;5114201;28;20235;-69
2023/03/21 03:37:51;;;;;;;17.38;8.85;;;;;;;9.11;100.00;101281.16;5114322;28;20081;-72
2023/03/21 03:40:54;;;;;;;15.52;8.32;;;;;;;9.10;100.00;101300.25;5114009;28;20023;-72
2023/03/21 03:43:38;;;;;;;16.80;8.77;;;;;;;9.08;100.00;101286.16;5011363;28;20041;-72
2023/03/21 03:46:17;;;;;;;15.35;8.05;;;;;;;9.09;100.00;101277.00;5104892;28;20075;-70
2023/03/21 03:48:50;;;;;;;18.10;8.70;;;;;;;9.04;100.00;101283.84;5113422;28;20033;-71
2023/03/21 03:51:26;;;;;;;20.33;8.50;;;;;;;9.05;100.00;101279.28;5112801;28;20027;-71
2023/03/21 03:53:56;;;;;;;18.08;8.88;;;;;;;9.04;100.00;101269.50;5093306;28;20020;-70
2023/03/21 03:56:24;;;;;;;14.13;8.23;;;;;;;9.04;100.00;101272.22;5075512;28;20024;-72
2023/03/21 03:58:49;;;;;;;16.40;8.13;;;;;;;9.02;100.00;101267.00;5093460;28;20047;-72
2023/03/21 04:01:14;;;;;;;18.52;8.18;;;;;;;9.05;100.00;101272.00;5101420;28;20058;-73
2023/03/21 04:03:43;;;;;;;15.05;8.48;;;;;;;9.01;100.00;101273.47;5095310;28;20023;-71
2023/03/21 04:06:08;;;;;;;18.25;8.55;;;;;;;9.03;100.00;101268.69;5110717;28;20542;-71
2023/03/21 04:08:36;;;;;;;15.82;8.82;;;;;;;9.01;100.00;101273.47;5113877;28;20019;-71
2023/03/21 04:11:02;;;;;;;18.13;8.48;;;;;;;8.99;100.00;101262.03;5113543;28;20132;-71
2023/03/21 04:13:27;;;;;;;18.38;8.52;;;;;;;9.01;100.00;101259.97;5113729;28;20040;-71
2023/03/21 04:15:52;;;;;;;18.10;9.25;;;;;;;9.02;100.00;101261.63;5113044;28;20106;-71
2023/03/21 04:18:17;;;;;;;17.27;9.18;;;;;;;9.01;100.00;101253.72;5094261;28;20024;-73
2023/03/21 04:20:43;;;;;;;15.93;8.52;;;;;;;9.01;100.00;101253.72;5113602;28;20038;-71
2023/03/21 04:23:09;;;;;;;18.35;9.13;;;;;;;8.98;100.00;101251.44;5113293;28;20434;-73
2023/03/21 04:25:35;;;;;;;14.95;8.77;;;;;;;9.03;100.00;101257.88;5107539;27;20027;-70
2023/03/21 04:28:00;;;;;;;19.48;9.65;;;;;;;8.98;100.00;101254.97;5093147;28;20393;-73
2023/03/21 04:30:26;;;;;;;15.77;8.27;;;;;;;9.01;100.00;101254.56;5074842;28;20020;-73
2023/03/21 04:32:55;;;;;;;17.20;9.15;;;;;;;9.00;100.00;101252.91;5073855;28;20028;-73
2023/03/21 04:35:21;;;;;;;16.10;8.88;;;;;;;9.00;100.00;101247.50;5096454;28;20641;-70
2023/03/21 04:37:46;;;;;;;18.42;8.95;;;;;;;9.00;100.00;101247.50;5113342;28;20015;-71
2023/03/21 04:40:16;;;;;;;17.75;8.77;;;;;;;9.02;100.00;101244.59;5112964;28;20016;-72
2023/03/21 04:42:41;;;;;;;18.98;9.15;;;;;;;9.01;100.00;101238.38;5112407;27;20036;-71
2023/03/21 04:45:07;;;;;;;16.65;8.52;;;;;;;9.02;100.00;101233.78;5102461;28;20034;-73
2023/03/21 04:47:32;;;;;;;20.75;9.43;;;;;;;9.05;100.00;101236.91;5092804;28;20024;-72
2023/03/21 04:49:58;;;;;;;20.05;8.95;;;;;;;9.03;100.00;101236.28;5092265;28;20051;-73
2023/03/21 04:52:24;;;;;;;17.25;9.15;;;;;;;9.03;100.00;101230.06;5092225;28;20126;-70
2023/03/21 04:54:49;;;;;;;19.58;9.80;;;;;;;9.02;100.00;101226.53;5089512;28;20120;-72
2023/03/21 04:57:15;;;;;;;15.15;8.82;;;;;;;9.06;100.00;101226.97;5092012;28;20032;-73
2023/03/21 04:59:40;;;;;;;17.95;8.40;;;;;;;9.07;100.00;101225.09;5091921;28;20024;-70
2023/03/21 05:02:06;;;;;;;16.83;8.25;;;;;;;9.04;100.00;101227.16;5090198;28;20150;-72
2023/03/21 05:04:31;;;;;;;16.92;8.88;;;;;;;9.05;100.00;101223.41;5058828;28;20028;-71
2023/03/21 05:06:57;;;;;;;16.92;8.85;;;;;;;9.03;100.00;101225.50;5072487;28;20060;-70
2023/03/21 05:09:23;;;;;;;19.50;9.27;;;;;;;9.02;100.00;101220.31;5072779;28;20095;-73
2023/03/21 05:11:49;;;;;;;17.63;8.73;;;;;;;9.04;100.00;101221.78;5054312;28;20087;-71
2023/03/21 05:14:18;;;;;;;18.40;9.00;;;;;;;9.05;100.00;101220.72;5072169;28;20028;-72
2023/03/21 05:16:47;;;;;;;16.85;8.65;;;;;;;9.04;100.00;101216.38;5072314;28;20024;-71
2023/03/21 05:19:13;;;;;;;16.27;8.48;;;;;;;9.04;100.00;101219.06;5085803;28;20020;-72
2023/03/21 05:21:42;;;;;;;18.33;8.65;;;;;;;9.07;100.00;101216.97;5090294;28;20107;-69
2023/03/21 05:24:14;;;;;;;16.95;8.57;;;;;;;9.03;100.00;101220.09;5092120;28;20028;-70
2023/03/21 05:26:42;;;;;;;16.50;8.50;;;;;;;9.08;100.00;101221.34;5092391;28;20024;-73
2023/03/21 05:29:07;;;;;;;19.17;8.77;;;;;;;9.08;100.00;101216.78;5091408;28;20198;-71
2023/03/21 05:31:33;;;;;;;18.27;9.30;;;;;;;9.08;100.00;101215.94;5092073;28;20028;-73
2023/03/21 05:33:58;;;;;;;19.73;8.80;;;;;;;9.11;100.00;101212.84;5091624;28;20042;-72
2023/03/21 05:36:23;;;;;;;19.80;8.75;;;;;;;9.08;100.00;101213.25;5091473;28;20028;-72
2023/03/21 05:38:50;;;;;;;17.50;8.40;;;;;;;9.10;100.00;101214.69;5073046;28;20020;-70
2023/03/21 05:41:16;;;;;;;17.30;8.60;;;;;;;9.08;100.00;101219.47;5092074;28;20051;-73
2023/03/21 05:43:42;;;;;;;16.75;8.40;;;;;;;9.11;100.00;101218.25;5092244;28;20494;-72
2023/03/21 05:46:08;;;;;;;18.95;8.23;;;;;;;9.09;100.00;101214.91;5095316;28;20032;-70
2023/03/21 05:48:34;;;;;;;18.85;8.40;;;;;;;9.09;100.00;101214.91;5095548;28;20060;-73
2023/03/21 05:51:00;;;;;;;17.48;7.78;;;;;;;9.09;100.00;101221.16;5077681;28;20062;-70
2023/03/21 05:53:26;;;;;;;19.83;8.50;;;;;;;9.09;100.00;101217.59;5094926;28;20039;-72
2023/03/21 05:55:51;;;;;;;15.98;8.27;;;;;;;9.09;100.00;101213.03;5095686;28;20055;-72
2023/03/21 05:58:16;;;;;;;18.10;8.27;;;;;;;9.12;100.00;101217.19;5094389;28;20036;-70
2023/03/21 06:00:42;;;;;;;17.30;7.88;;;;;;;9.12;100.00;101217.19;5093192;28;20091;-73
2023/03/21 06:03:07;;;;;;;16.08;7.70;;;;;;;9.13;100.00;101216.97;5077572;28;20055;-73
2023/03/21 06:05:32;;;;;;;18.45;7.90;;;;;;;9.13;100.00;101216.16;5095818;28;20024;-70
2023/03/21 06:07:58;;;;;;;18.50;8.10;;;;;;;9.13;100.00;101216.97;5065025;28;20024;-71
2023/03/21 06:10:23;;;;;;;18.00;7.95;;;;;;;9.15;100.00;101211.38;5092980;28;20106;-73
2023/03/21 06:12:48;;;;;;;16.92;8.02;;;;;;;9.15;100.00;101211.38;5095661;28;20021;-73
2023/03/21 06:15:14;;;;;;;18.50;8.07;;;;;;;9.17;100.00;101212.84;5095132;28;20016;-73
2023/03/21 06:17:39;;;;;;;17.05;7.30;;;;;;;9.21;100.00;101213.28;5094207;28;20024;-71
2023/03/21 06:20:06;;;;;;;17.17;7.22;;;;;;;9.22;100.00;101217.63;5095422;28;20030;-73
2023/03/21 06:22:33;;;;;;;17.63;7.80;;;;;;;9.23;100.00;101222.81;5094698;28;20031;-73
2023/03/21 06:24:58;;;;;;;17.63;7.00;;;;;;;9.25;100.00;101222.59;5077013;28;20035;-70
2023/03/21 06:27:24;;;;;;;15.52;7.35;;;;;;;9.27;100.00;101225.09;5094122;28;20024;-72
2023/03/21 06:29:50;;;;;;;13.13;6.45;;;;;;;9.26;100.00;101224.28;5095434;28;20027;-71
2023/03/21 06:32:15;;;;;;;19.02;7.07;;;;;;;9.29;100.00;101229.25;5092041;28;20115;-71
2023/03/21 06:34:41;;;;;;;19.65;6.95;;;;;;;9.30;100.00;101232.78;5094628;28;20028;-73
2023/03/21 06:37:06;;;;;;;14.43;6.53;;;;;;;9.31;100.00;101229.88;5093881;28;20027;-72
2023/03/21 06:39:32;;;;;;;16.48;6.60;;;;;;;9.31;100.00;101235.28;5095155;28;20044;-73
2023/03/21 06:41:58;;;;;;;19.85;7.18;;;;;;;9.31;100.00;101232.56;5094511;28;20098;-71
2023/03/21 06:44:23;;;;;;;15.02;6.38;;;;;;;9.31;100.00;101232.56;5094747;28;20478;-70
2023/03/21 06:46:50;;;;;;;16.30;6.28;;;;;;;9.31;100.00;101221.75;5095424;28;20028;-72
2023/03/21 06:49:16;;;;;;;15.57;6.45;;;;;;;9.35;100.00;101228.41;5094550;28;20024;-72
2023/03/21 06:51:41;;;;;;;16.08;6.82;;;;;;;9.33;100.00;101233.22;5093966;28;20066;-72
2023/03/21 06:54:06;;;;;;;16.92;6.95;;;;;;;9.32;100.00;101228.84;5078381;28;20052;-71
2023/03/21 06:56:32;;;;;;;14.60;6.65;;;;;;;9.30;100.00;101222.81;5114357;28;20028;-71
2023/03/21 06:58:57;;;;;;;16.27;7.03;;;;;;;9.31;100.00;101229.88;5115294;28;20051;-73
2023/03/21 07:01:23;;;;;;;20.65;7.28;;;;;;;9.31;100.00;101235.28;5112647;28;20107;-72
2023/03/21 07:03:49;;;;;;;12.88;6.65;;;;;;;9.30;100.00;101240.88;5113573;28;20102;-70
2023/03/21 07:06:15;;;;;;;13.10;7.13;;;;;;;9.28;100.00;101234.88;5096620;28;20111;-73
2023/03/21 07:08:41;;;;;;;22.17;7.65;;;;;;;9.29;100.00;101237.34;5079929;28;20028;-70
2023/03/21 07:11:07;;;;;;;13.25;6.72;;;;;;;9.30;100.00;101240.88;5094706;28;20574;-70
2023/03/21 07:13:33;;;;;;;17.17;7.20;;;;;;;9.28;100.00;101241.09;5091771;28;20122;-70
2023/03/21 07:15:59;;;;;;;17.05;6.93;;;;;;;9.32;100.00;101255.03;5114701;28;20066;-71
2023/03/21 07:18:24;;;;;;;14.93;6.93;;;;;;;9.29;100.00;101248.16;5112284;28;20023;-73
2023/03/21 07:20:50;;;;;;;15.05;7.07;;;;;;;9.30;100.00;101244.44;5095652;28;20023;-71
2023/03/21 07:23:21;;;;;;;14.65;6.90;;;;;;;9.33;100.00;101248.56;5113755;28;20084;-72
2023/03/21 07:25:47;;;;;;;15.43;7.07;;;;;;;9.33;100.00;101248.56;5114772;28;20035;-71
2023/03/21 07:28:13;;;;;;;15.52;7.20;;;;;;;9.33;100.00;101253.97;5113627;28;20523;-73
2023/03/21 07:30:38;;;;;;;13.95;7.32;;;;;;;9.33;100.00;101262.06;5114423;28;20023;-72
2023/03/21 07:33:04;;;;;;;14.50;7.18;;;;;;;9.33;100.00;101256.66;5096115;28;20019;-73
2023/03/21 07:35:30;;;;;;;20.20;7.50;;;;;;;9.32;100.00;101253.16;5112547;28;20028;-72
2023/03/21 07:37:55;;;;;;;17.58;7.57;;;;;;;9.33;100.00;101254.81;5093318;28;20023;-74
2023/03/21 07:40:20;;;;;;;16.02;8.27;;;;;;;9.33;100.00;101248.56;5113974;28;20518;-74
2023/03/21 07:42:47;;;;;;;18.70;8.20;;;;;;;9.32;100.00;101247.75;5094929;28;20024;-72
2023/03/21 07:45:22;;;;;;;18.85;8.27;;;;;;;9.31;100.00;101251.47;5112153;28;20502;-77
2023/03/21 07:47:48;;;;;;;20.23;8.80;;;;;;;9.32;100.00;101244.22;5095045;28;20070;-74
2023/03/21 07:50:14;;;;;;;20.08;9.25;;;;;;;9.29;100.00;101240.06;5112466;28;20385;-74
2023/03/21 07:52:40;;;;;;;17.60;8.60;;;;;;;9.30;100.00;101233.63;5112585;28;20031;-74
2023/03/21 07:55:05;;;;;;;18.77;8.68;;;;;;;9.30;100.00;101230.94;5112252;28;20425;-75
2023/03/21 07:57:31;;;;;;;22.88;9.05;;;;;;;9.32;100.00;101228.03;5113128;28;20055;-75
2023/03/21 07:59:56;;;;;;;21.42;8.98;;;;;;;9.32;100.00;101222.63;5111248;28;20023;-74
2023/03/21 08:02:22;;;;;;;20.15;9.05;;;;;;;9.36;100.00;101219.28;5096877;28;20024;-74
2023/03/21 08:04:47;;;;;;;19.25;8.88;;;;;;;9.37;100.00;101226.34;5086375;28;20024;-74
2023/03/21 08:07:13;;;;;;;19.30;9.43;;;;;;;9.44;100.00;101206.63;5110982;28;20023;-72
2023/03/21 08:09:38;;;;;;;19.55;8.57;;;;;;;9.46;100.00;101207.22;5088962;28;20020;-73
2023/03/21 08:12:05;;;;;;;18.50;9.35;;;;;;;9.45;100.00;101206.41;5086256;28;20540;-74
2023/03/21 08:14:30;;;;;;;19.15;8.68;;;;;;;9.52;100.00;101195.59;5111173;28;20028;-73
2023/03/21 08:16:55;;;;;;;17.63;8.77;;;;;;;9.49;100.00;101196.81;5076729;28;20074;-74
2023/03/21 08:19:21;;;;;;;18.52;9.35;;;;;;;9.53;100.00;101191.84;5104801;28;20042;-73
2023/03/21 08:21:50;;;;;;;19.80;9.35;;;;;;;9.54;100.00;101190.78;5112813;27;20031;-75
2023/03/21 08:24:16;;;;;;;20.67;9.50;;;;;;;9.52;100.00;101190.19;5112791;28;20102;-74
2023/03/21 08:26:50;;;;;;;17.65;8.93;;;;;;;9.51;100.00;101189.38;5113838;28;20061;-75
2023/03/21 08:29:15;;;;;;;16.45;8.77;;;;;;;9.48;100.00;101181.69;5111924;28;20035;-76
2023/03/21 08:31:40;;;;;;;17.10;7.90;;;;;;;9.52;100.00;101174.78;5088360;28;20024;-73
2023/03/21 08:34:06;;;;;;;18.75;8.73;;;;;;;9.49;100.00;101186.03;5112999;28;20028;-74
2023/03/21 08:36:32;;;;;;;14.70;7.97;;;;;;;9.53;100.00;101189.16;5113400;28;20107;-72
2023/03/21 08:39:04;;;;;;;16.67;8.23;;;;;;;9.51;100.00;101183.09;5111946;28;20088;-72
2023/03/21 08:41:29;;;;;;;;;;;;;;;9.63;100.00;101181.47;5113190;28;20059;-73
2023/03/21 08:43:55;;;;;;;16.10;7.95;;;;;;;9.54;100.00;101174.59;5113292;28;19903;-73
2023/03/21 08:46:22;;;;;;;15.57;7.75;;;;;;;9.51;100.00;101175.00;5093756;28;20339;-73
2023/03/21 08:48:48;;;;;;;13.63;7.10;;;;;;;9.48;100.00;101183.53;5079661;28;20028;-73
2023/03/21 08:51:13;;;;;;;13.63;7.15;;;;;;;9.51;100.00;101177.72;5094779;28;20470;-73
2023/03/21 08:53:42;;;;;;;12.93;6.90;;;;;;;9.50;100.00;101176.88;5113031;28;20450;-73
2023/03/21 08:56:09;;;;;;;15.70;7.65;;;;;;;9.52;100.00;101173.97;5093040;28;20050;-73
2023/03/21 08:58:35;;;;;;;13.20;6.97;;;;;;;9.52;100.00;101169.41;5112283;28;20070;-73
2023/03/21 09:01:01;;;;;;;14.30;7.43;;;;;;;9.55;100.00;101168.97;5092593;28;20051;-73
2023/03/21 09:03:26;;;;;;;16.45;7.28;;;;;;;9.53;100.00;101156.72;5094628;28;20027;-73
2023/03/21 09:05:53;;;;;;;18.90;8.10;;;;;;;9.56;100.00;101170.63;5113293;28;20371;-76
2023/03/21 09:08:22;;;;;;;16.35;7.65;;;;;;;9.61;100.00;101161.91;5111763;28;20028;-73
2023/03/21 09:10:51;;;;;;;16.55;8.18;;;;;;;9.65;100.00;101160.44;5094520;28;20659;-73
2023/03/21 09:13:17;;;;;;;19.48;7.32;;;;;;;9.67;100.00;101161.06;5094313;28;20031;-73
2023/03/21 09:15:44;;;;;;;15.85;7.32;;;;;;;9.71;100.00;101162.31;5112600;28;20076;-73
2023/03/21 09:18:13;;;;;;;16.80;8.45;;;;;;;9.72;100.00;101163.97;5093798;28;20485;-73
2023/03/21 09:20:41;;;;;;;16.13;7.78;;;;;;;9.76;100.00;101161.66;5096121;28;20055;-74
2023/03/21 09:23:07;;;;;;;16.83;7.65;;;;;;;9.74;100.00;101161.88;5098793;28;20020;-73
2023/03/21 09:25:33;;;;;;;16.17;8.10;;;;;;;9.79;100.00;101155.84;5116106;27;20101;-74
2023/03/21 09:27:59;;;;;;;16.48;7.57;;;;;;;9.81;100.00;101155.63;5116768;28;20102;-73
2023/03/21 09:30:25;;;;;;;14.55;6.95;;;;;;;9.82;100.00;101150.00;5115986;28;20123;-74
2023/03/21 09:32:52;;;;;;;16.33;6.63;;;;;;;9.84;100.00;101157.91;5116836;28;20107;-73
2023/03/21 09:35:19;;;;;;;16.33;6.70;;;;;;;9.85;100.00;101140.66;5098392;28;20023;-73
2023/03/21 09:37:48;;;;;;;14.43;7.00;;;;;;;9.87;100.00;101138.56;5108437;28;20107;-73
2023/03/21 09:40:26;;;;;;;13.55;6.90;;;;;;;9.90;100.00;101140.81;5079675;28;20038;-73
2023/03/21 09:43:15;;;;;;;14.52;6.43;;;;;;;9.91;100.00;101139.78;5097326;28;20382;-73
2023/03/21 09:45:49;;;;;;;11.63;6.38;;;;;;;9.92;100.00;101142.28;5116780;28;20153;-74
2023/03/21 09:48:33;;;;;;;13.40;6.18;;;;;;;9.93;100.00;101133.13;5085466;28;20047;-74
2023/03/21 09:50:59;;;;;;;11.10;6.10;;;;;;;10.00;100.00;101132.28;5077979;28;20619;-74
2023/03/21 09:53:32;;;;;;;13.68;6.50;;;;;;;10.02;100.00;101133.69;5095741;28;20035;-75
2023/03/21 09:56:00;;;;;;;14.57;6.22;;;;;;;10.06;100.00;101142.22;5079025;28;20243;-74
2023/03/21 09:58:39;;;;;;;12.57;6.68;;;;;;;10.10;100.00;101130.78;5114747;28;20035;-74
2023/03/21 10:01:28;;;;;;;12.27;6.05;;;;;;;10.19;100.00;101127.81;5114106;28;20020;-75
2023/03/21 10:03:55;;;;;;;16.30;6.30;;;;;;;10.22;100.00;101124.66;5116322;28;20027;-74
2023/03/21 10:06:27;;;;;;;12.70;5.82;;;;;;;10.24;100.00;101115.31;5116142;28;20043;-75
2023/03/21 10:08:57;;;;;;;12.00;6.05;;;;;;;10.32;100.00;101122.34;5115351;28;20091;-75
2023/03/21 10:11:38;;;;;;;12.23;5.80;;;;;;;10.33;100.00;101115.91;5115566;27;21845;-74
2023/03/21 10:14:17;;;;;;;15.13;6.07;;;;;;;10.36;100.00;101115.47;5095740;28;20024;-74
2023/03/21 10:16:45;;;;;;;15.30;5.95;;;;;;;10.43;100.00;101115.44;5077646;28;20035;-74
2023/03/21 10:19:16;;;;;;;12.90;6.15;;;;;;;10.43;100.00;101104.59;5080584;28;20479;-74
2023/03/21 10:21:46;;;;;;;13.45;6.00;;;;;;;10.51;100.00;101106.22;5095871;28;20128;-74
2023/03/21 10:24:25;;;;;;;12.77;5.95;;;;;;;10.60;100.00;101107.66;5095457;28;20028;-75
2023/03/21 10:26:52;;;;;;;9.55;5.22;;;;;;;10.67;100.00;101105.69;5080741;28;20024;-74
2023/03/21 10:29:21;;;;;;;9.52;5.10;;;;;;;10.67;100.00;101113.81;5097134;28;20092;-75
2023/03/21 10:31:55;;;;;;;10.32;5.05;;;;;;;10.71;100.00;101106.09;5114381;28;20465;-74
2023/03/21 10:34:33;;;;;;;12.27;5.18;;;;;;;10.74;100.00;101106.47;5092390;28;20027;-74
2023/03/21 10:37:03;;;;;;;12.52;5.28;;;;;;;10.76;100.00;101098.13;5115703;28;20032;-75
2023/03/21 10:39:41;;;;;;;11.85;5.00;;;;;;;10.82;100.00;101106.22;5097175;28;20028;-74
2023/03/21 10:42:22;;;;;;;10.30;5.05;;;;;;;10.94;100.00;101108.19;5096498;28;20027;-74
2023/03/21 10:44:50;;;;;;;12.97;5.20;;;;;;;10.91;100.00;101111.34;5108398;28;20105;-74
2023/03/21 10:47:21;;;;;;;13.95;5.40;;;;;;;10.95;100.00;101107.16;5097164;28;20110;-74
2023/03/21 10:49:47;;;;;;;11.77;5.45;;;;;;;10.99;100.00;101106.50;5115524;28;20023;-74
2023/03/21 10:52:21;;;;;;;12.75;5.45;;;;;;;11.04;100.00;101111.25;5114626;27;20050;-74
2023/03/21 10:54:47;;;;;;;12.05;5.13;;;;;;;11.11;100.00;101116.59;5114378;28;20054;-74
2023/03/21 10:57:18;;;;;;;10.25;5.40;;;;;;;11.16;100.00;101104.06;5114192;28;20165;-74
2023/03/21 10:59:47;;;;;;;11.30;5.10;;;;;;;11.23;100.00;101108.56;5095962;28;20093;-74
2023/03/21 11:02:20;;;;;;;13.18;5.18;;;;;;;11.31;100.00;101105.59;5112639;28;20077;-74
2023/03/21 11:04:45;;;;;;;9.80;5.00;;;;;;;11.35;100.00;101085.09;5096871;28;20024;-74
2023/03/21 11:07:14;;;;;;;12.43;5.00;;;;;;;11.43;100.00;101092.97;5095534;28;20092;-74
2023/03/21 11:09:56;;;;;;;12.10;4.97;;;;;;;11.44;100.00;101091.88;5096462;28;20035;-74
2023/03/21 11:12:48;;;;;;;12.05;4.78;;;;;;;11.50;100.00;101093.72;5096313;28;20354;-74
2023/03/21 11:15:52;;;;;;;12.30;5.60;;;;;;;11.51;100.00;101095.34;5091761;28;20530;-74
2023/03/21 11:18:19;;;;;;;12.18;6.03;;;;;;;11.50;100.00;101091.00;5100874;28;20470;-74
2023/03/21 11:20:57;;;;;;;11.48;4.78;;;;;;;11.56;100.00;101102.00;5095324;28;20034;-74
2023/03/21 11:23:28;;;;;;;13.73;4.57;;;;;;;11.60;100.00;101108.63;5114186;28;20059;-74
2023/03/21 11:25:57;;;;;;;9.77;4.60;;;;;;;11.58;100.00;101105.28;5114768;28;20030;-74